sensor_id;sensor_type;location;lat;lon;timestamp;pressure;altitude;pressure_sealevel;temperature;humidity
64610;BME280;51019;46.090;6.350;2022-07-05T00:02:01;96909.19;;;17.36;98.05
64610;BME280;51019;46.090;6.350;2022-07-05T00:04:26;96898.44;;;17.38;97.65
64610;BME280;51019;46.090;6.350;2022-07-05T00:06:51;96898.28;;;17.31;97.93
64610;BME280;51019;46.090;6.350;2022-07-05T00:09:35;96876.84;;;17.18;97.60
64610;BME280;51019;46.090;6.350;2022-07-05T00:12:01;96915.56;;;17.73;95.14
64610;BME280;51019;46.090;6.350;2022-07-05T00:14:27;96880.69;;;17.38;95.25
64610;BME280;51019;46.090;6.350;2022-07-05T00:16:52;96907.06;;;17.32;96.61
64610;BME280;51019;46.090;6.350;2022-07-05T00:19:19;96901.41;;;17.35;98.01
64610;BME280;51019;46.090;6.350;2022-07-05T00:21:45;96915.09;;;17.47;98.23
64610;BME280;51019;46.090;6.350;2022-07-05T00:24:13;96915.66;;;17.34;99.24
64610;BME280;51019;46.090;6.350;2022-07-05T00:26:39;96910.09;;;17.21;99.42
64610;BME280;51019;46.090;6.350;2022-07-05T00:29:05;96918.59;;;17.39;99.00
64610;BME280;51019;46.090;6.350;2022-07-05T00:31:30;96910.34;;;17.34;98.80
64610;BME280;51019;46.090;6.350;2022-07-05T00:33:56;96887.41;;;17.26;98.76
64610;BME280;51019;46.090;6.350;2022-07-05T00:36:21;96920.66;;;17.52;98.71
64610;BME280;51019;46.090;6.350;2022-07-05T00:38:47;96911.81;;;17.67;97.67
64610;BME280;51019;46.090;6.350;2022-07-05T00:41:12;96918.25;;;17.42;98.42
64610;BME280;51019;46.090;6.350;2022-07-05T00:43:54;96918.38;;;17.26;98.73
64610;BME280;51019;46.090;6.350;2022-07-05T00:46:20;96897.53;;;16.92;99.84
64610;BME280;51019;46.090;6.350;2022-07-05T00:48:45;96912.75;;;16.90;100.00
64610;BME280;51019;46.090;6.350;2022-07-05T00:51:11;96909.78;;;16.85;100.00
64610;BME280;51019;46.090;6.350;2022-07-05T00:53:38;96917.34;;;16.96;100.00
64610;BME280;51019;46.090;6.350;2022-07-05T00:56:06;96915.47;;;17.04;99.50
64610;BME280;51019;46.090;6.350;2022-07-05T00:58:32;96909.63;;;17.17;98.26
64610;BME280;51019;46.090;6.350;2022-07-05T01:00:58;96915.88;;;17.24;97.95
64610;BME280;51019;46.090;6.350;2022-07-05T01:03:24;96921.41;;;17.15;98.59
64610;BME280;51019;46.090;6.350;2022-07-05T01:05:49;96919.59;;;17.15;98.67
64610;BME280;51019;46.090;6.350;2022-07-05T01:08:16;96905.94;;;16.95;98.58
64610;BME280;51019;46.090;6.350;2022-07-05T01:10:42;96903.88;;;16.75;99.62
64610;BME280;51019;46.090;6.350;2022-07-05T01:13:08;96898.88;;;16.88;99.85
64610;BME280;51019;46.090;6.350;2022-07-05T01:15:35;96919.16;;;17.03;98.94
64610;BME280;51019;46.090;6.350;2022-07-05T01:18:00;96898.09;;;16.79;99.38
64610;BME280;51019;46.090;6.350;2022-07-05T01:20:26;96923.00;;;16.93;99.86
64610;BME280;51019;46.090;6.350;2022-07-05T01:22:56;96913.41;;;16.92;100.00
64610;BME280;51019;46.090;6.350;2022-07-05T01:25:24;96922.19;;;16.92;100.00
64610;BME280;51019;46.090;6.350;2022-07-05T01:27:50;96909.88;;;16.68;100.00
64610;BME280;51019;46.090;6.350;2022-07-05T01:30:17;96921.41;;;16.76;100.00
64610;BME280;51019;46.090;6.350;2022-07-05T01:32:43;96923.09;;;16.68;100.00
64610;BME280;51019;46.090;6.350;2022-07-05T01:35:10;96893.50;;;16.57;100.00
64610;BME280;51019;46.090;6.350;2022-07-05T01:37:36;96926.22;;;16.72;100.00
64610;BME280;51019;46.090;6.350;2022-07-05T01:40:03;96914.63;;;16.81;100.00
64610;BME280;51019;46.090;6.350;2022-07-05T01:42:30;96923.63;;;16.95;100.00
64610;BME280;51019;46.090;6.350;2022-07-05T01:44:56;96924.25;;;17.05;100.00
64610;BME280;51019;46.090;6.350;2022-07-05T01:47:22;96913.88;;;16.95;99.72
64610;BME280;51019;46.090;6.350;2022-07-05T01:49:50;96935.53;;;16.99;100.00
64610;BME280;51019;46.090;6.350;2022-07-05T01:52:21;96931.63;;;16.87;100.00
64610;BME280;51019;46.090;6.350;2022-07-05T01:54:47;96930.47;;;16.89;100.00
64610;BME280;51019;46.090;6.350;2022-07-05T01:57:14;96930.59;;;16.96;100.00
64610;BME280;51019;46.090;6.350;2022-07-05T01:59:39;96937.41;;;16.90;100.00
64610;BME280;51019;46.090;6.350;2022-07-05T02:02:07;96920.59;;;16.75;100.00
64610;BME280;51019;46.090;6.350;2022-07-05T02:04:34;96930.00;;;16.78;100.00
64610;BME280;51019;46.090;6.350;2022-07-05T02:07:03;96927.91;;;16.57;100.00
64610;BME280;51019;46.090;6.350;2022-07-05T02:09:29;96948.56;;;16.69;100.00
64610;BME280;51019;46.090;6.350;2022-07-05T02:11:55;96916.69;;;16.47;100.00
64610;BME280;51019;46.090;6.350;2022-07-05T02:14:21;96928.91;;;16.64;100.00
64610;BME280;51019;46.090;6.350;2022-07-05T02:16:46;96941.47;;;16.70;100.00
64610;BME280;51019;46.090;6.350;2022-07-05T02:19:12;96930.19;;;16.60;100.00
64610;BME280;51019;46.090;6.350;2022-07-05T02:21:38;96927.75;;;16.50;100.00
64610;BME280;51019;46.090;6.350;2022-07-05T02:24:04;96923.81;;;16.38;100.00
64610;BME280;51019;46.090;6.350;2022-07-05T02:26:29;96939.00;;;16.44;100.00
64610;BME280;51019;46.090;6.350;2022-07-05T02:28:55;96934.34;;;16.54;100.00
64610;BME280;51019;46.090;6.350;2022-07-05T02:31:22;96930.56;;;16.49;100.00
64610;BME280;51019;46.090;6.350;2022-07-05T02:33:47;96907.94;;;16.46;100.00
64610;BME280;51019;46.090;6.350;2022-07-05T02:36:13;96921.28;;;16.53;100.00
64610;BME280;51019;46.090;6.350;2022-07-05T02:38:40;96923.13;;;16.52;100.00
64610;BME280;51019;46.090;6.350;2022-07-05T02:41:07;96928.38;;;16.60;100.00
64610;BME280;51019;46.090;6.350;2022-07-05T02:43:33;96927.75;;;16.58;100.00
64610;BME280;51019;46.090;6.350;2022-07-05T02:46:00;96922.44;;;16.50;100.00
64610;BME280;51019;46.090;6.350;2022-07-05T02:48:26;96916.53;;;16.40;100.00
64610;BME280;51019;46.090;6.350;2022-07-05T02:50:51;96910.81;;;16.04;100.00
64610;BME280;51019;46.090;6.350;2022-07-05T02:53:17;96932.44;;;16.16;100.00
64610;BME280;51019;46.090;6.350;2022-07-05T02:55:42;96925.22;;;16.02;100.00
64610;BME280;51019;46.090;6.350;2022-07-05T02:58:08;96946.66;;;16.15;100.00
64610;BME280;51019;46.090;6.350;2022-07-05T03:00:34;96942.03;;;16.17;100.00
64610;BME280;51019;46.090;6.350;2022-07-05T03:02:59;96943.69;;;16.18;100.00
64610;BME280;51019;46.090;6.350;2022-07-05T03:05:25;96939.22;;;16.18;100.00
64610;BME280;51019;46.090;6.350;2022-07-05T03:07:50;96931.63;;;16.15;100.00
64610;BME280;51019;46.090;6.350;2022-07-05T03:10:16;96938.56;;;16.16;100.00
64610;BME280;51019;46.090;6.350;2022-07-05T03:12:42;96940.34;;;16.32;100.00
64610;BME280;51019;46.090;6.350;2022-07-05T03:15:08;96932.13;;;16.19;100.00
64610;BME280;51019;46.090;6.350;2022-07-05T03:17:33;96946.84;;;16.13;100.00
64610;BME280;51019;46.090;6.350;2022-07-05T03:19:59;96955.09;;;16.10;100.00
64610;BME280;51019;46.090;6.350;2022-07-05T03:22:25;96941.72;;;16.12;100.00
64610;BME280;51019;46.090;6.350;2022-07-05T03:24:50;96955.94;;;16.03;100.00
64610;BME280;51019;46.090;6.350;2022-07-05T03:27:16;96958.09;;;15.99;100.00
64610;BME280;51019;46.090;6.350;2022-07-05T03:29:42;96954.78;;;15.89;100.00
64610;BME280;51019;46.090;6.350;2022-07-05T03:32:07;96962.34;;;16.16;100.00
64610;BME280;51019;46.090;6.350;2022-07-05T03:34:33;96892.50;;;15.78;100.00
64610;BME280;51019;46.090;6.350;2022-07-05T03:36:59;96936.91;;;16.15;100.00
64610;BME280;51019;46.090;6.350;2022-07-05T03:39:26;96963.97;;;16.42;100.00
64610;BME280;51019;46.090;6.350;2022-07-05T03:41:52;96951.72;;;16.57;100.00
64610;BME280;51019;46.090;6.350;2022-07-05T03:44:18;96967.41;;;16.75;100.00
64610;BME280;51019;46.090;6.350;2022-07-05T03:46:45;96981.66;;;16.65;100.00
64610;BME280;51019;46.090;6.350;2022-07-05T03:49:10;96976.38;;;16.57;100.00
64610;BME280;51019;46.090;6.350;2022-07-05T03:51:36;96957.03;;;16.41;100.00
64610;BME280;51019;46.090;6.350;2022-07-05T03:54:01;96967.78;;;16.47;100.00
64610;BME280;51019;46.090;6.350;2022-07-05T03:56:26;96981.66;;;16.57;100.00
64610;BME280;51019;46.090;6.350;2022-07-05T03:58:52;96982.94;;;16.61;100.00
64610;BME280;51019;46.090;6.350;2022-07-05T04:01:18;96984.31;;;16.65;100.00
64610;BME280;51019;46.090;6.350;2022-07-05T04:03:43;96987.09;;;16.80;100.00
64610;BME280;51019;46.090;6.350;2022-07-05T04:06:11;96984.81;;;16.69;100.00
64610;BME280;51019;46.090;6.350;2022-07-05T04:08:37;96980.84;;;16.65;100.00
64610;BME280;51019;46.090;6.350;2022-07-05T04:11:03;96982.13;;;16.77;100.00
64610;BME280;51019;46.090;6.350;2022-07-05T04:13:29;96977.50;;;16.79;100.00
64610;BME280;51019;46.090;6.350;2022-07-05T04:15:54;96999.97;;;16.83;100.00
64610;BME280;51019;46.090;6.350;2022-07-05T04:18:21;96987.91;;;16.73;100.00
64610;BME280;51019;46.090;6.350;2022-07-05T04:20:47;96999.84;;;16.68;100.00
64610;BME280;51019;46.090;6.350;2022-07-05T04:23:13;96989.59;;;16.65;100.00
64610;BME280;51019;46.090;6.350;2022-07-05T04:25:39;97000.81;;;16.76;100.00
64610;BME280;51019;46.090;6.350;2022-07-05T04:28:05;96995.69;;;16.74;100.00
64610;BME280;51019;46.090;6.350;2022-07-05T04:30:30;97003.97;;;16.79;100.00
64610;BME280;51019;46.090;6.350;2022-07-05T04:32:56;97003.72;;;16.97;100.00
64610;BME280;51019;46.090;6.350;2022-07-05T04:35:22;97004.13;;;17.17;100.00
64610;BME280;51019;46.090;6.350;2022-07-05T04:37:49;96988.78;;;17.12;100.00
64610;BME280;51019;46.090;6.350;2022-07-05T04:40:16;96992.84;;;16.92;100.00
64610;BME280;51019;46.090;6.350;2022-07-05T04:42:42;96997.06;;;17.09;100.00
64610;BME280;51019;46.090;6.350;2022-07-05T04:45:08;96975.25;;;16.99;100.00
64610;BME280;51019;46.090;6.350;2022-07-05T04:47:33;96989.91;;;17.18;100.00
64610;BME280;51019;46.090;6.350;2022-07-05T04:50:00;96990.31;;;17.37;100.00
64610;BME280;51019;46.090;6.350;2022-07-05T04:52:27;96996.78;;;17.35;100.00
64610;BME280;51019;46.090;6.350;2022-07-05T04:54:53;97012.72;;;17.89;99.98
64610;BME280;51019;46.090;6.350;2022-07-05T04:57:19;96990.84;;;17.87;99.50
64610;BME280;51019;46.090;6.350;2022-07-05T04:59:45;97012.06;;;18.09;98.74
64610;BME280;51019;46.090;6.350;2022-07-05T05:02:11;97017.13;;;18.19;97.94
64610;BME280;51019;46.090;6.350;2022-07-05T05:04:37;97015.69;;;18.17;96.75
64610;BME280;51019;46.090;6.350;2022-07-05T05:07:02;97019.84;;;18.34;96.09
64610;BME280;51019;46.090;6.350;2022-07-05T05:09:28;97010.94;;;18.27;97.98
64610;BME280;51019;46.090;6.350;2022-07-05T05:11:53;97012.00;;;18.18;99.94
64610;BME280;51019;46.090;6.350;2022-07-05T05:14:19;97021.09;;;18.00;99.33
64610;BME280;51019;46.090;6.350;2022-07-05T05:16:44;97012.97;;;18.02;100.00
64610;BME280;51019;46.090;6.350;2022-07-05T05:19:10;97014.25;;;18.06;98.47
64610;BME280;51019;46.090;6.350;2022-07-05T05:21:36;97031.63;;;18.31;98.04
64610;BME280;51019;46.090;6.350;2022-07-05T05:24:03;97033.97;;;18.49;96.62
64610;BME280;51019;46.090;6.350;2022-07-05T05:26:29;97030.09;;;18.60;96.58
64610;BME280;51019;46.090;6.350;2022-07-05T05:28:54;97032.56;;;18.61;95.43
64610;BME280;51019;46.090;6.350;2022-07-05T05:31:19;97022.31;;;18.58;94.75
64610;BME280;51019;46.090;6.350;2022-07-05T05:33:45;97017.47;;;18.76;94.61
64610;BME280;51019;46.090;6.350;2022-07-05T05:36:11;97028.09;;;18.91;92.39
64610;BME280;51019;46.090;6.350;2022-07-05T05:38:36;97034.56;;;18.74;93.17
64610;BME280;51019;46.090;6.350;2022-07-05T05:41:02;97026.81;;;19.02;92.74
64610;BME280;51019;46.090;6.350;2022-07-05T05:43:28;97031.88;;;19.26;90.07
64610;BME280;51019;46.090;6.350;2022-07-05T05:45:55;97015.31;;;18.57;90.81
64610;BME280;51019;46.090;6.350;2022-07-05T05:48:20;97037.91;;;18.91;90.75
64610;BME280;51019;46.090;6.350;2022-07-05T05:50:47;97016.19;;;18.72;89.17
64610;BME280;51019;46.090;6.350;2022-07-05T05:53:13;97026.75;;;18.95;88.08
64610;BME280;51019;46.090;6.350;2022-07-05T05:55:38;97050.63;;;19.10;88.30
64610;BME280;51019;46.090;6.350;2022-07-05T05:58:30;97055.66;;;19.34;88.02
64610;BME280;51019;46.090;6.350;2022-07-05T06:00:56;97056.84;;;19.46;88.51
64610;BME280;51019;46.090;6.350;2022-07-05T06:03:23;97047.34;;;19.88;86.39
64610;BME280;51019;46.090;6.350;2022-07-05T06:05:49;97058.81;;;19.88;87.35
64610;BME280;51019;46.090;6.350;2022-07-05T06:08:16;97055.75;;;20.06;85.93
64610;BME280;51019;46.090;6.350;2022-07-05T06:10:42;97056.75;;;20.05;86.86
64610;BME280;51019;46.090;6.350;2022-07-05T06:13:10;97059.13;;;19.79;87.26
64610;BME280;51019;46.090;6.350;2022-07-05T06:15:38;97060.56;;;19.96;86.29
64610;BME280;51019;46.090;6.350;2022-07-05T06:18:05;97049.97;;;20.03;87.15
64610;BME280;51019;46.090;6.350;2022-07-05T06:20:32;97046.66;;;19.79;85.49
64610;BME280;51019;46.090;6.350;2022-07-05T06:22:59;97052.59;;;19.81;85.88
64610;BME280;51019;46.090;6.350;2022-07-05T06:25:25;97064.19;;;19.74;86.75
64610;BME280;51019;46.090;6.350;2022-07-05T06:27:59;97060.59;;;19.81;86.02
64610;BME280;51019;46.090;6.350;2022-07-05T06:30:29;97063.13;;;20.11;84.94
64610;BME280;51019;46.090;6.350;2022-07-05T06:32:55;97064.19;;;19.44;86.11
64610;BME280;51019;46.090;6.350;2022-07-05T06:35:22;97061.66;;;19.07;89.44
64610;BME280;51019;46.090;6.350;2022-07-05T06:37:50;97062.56;;;19.58;87.32
64610;BME280;51019;46.090;6.350;2022-07-05T06:42:44;97053.09;;;20.06;84.58
64610;BME280;51019;46.090;6.350;2022-07-05T06:45:10;97050.06;;;20.52;80.62
64610;BME280;51019;46.090;6.350;2022-07-05T06:47:37;97053.75;;;21.07;79.68
64610;BME280;51019;46.090;6.350;2022-07-05T06:50:04;97053.75;;;21.41;77.02
64610;BME280;51019;46.090;6.350;2022-07-05T06:52:31;97051.03;;;21.34;75.51
64610;BME280;51019;46.090;6.350;2022-07-05T06:54:58;97050.59;;;21.65;75.82
64610;BME280;51019;46.090;6.350;2022-07-05T06:57:24;97040.22;;;21.43;74.28
64610;BME280;51019;46.090;6.350;2022-07-05T06:59:50;97051.28;;;21.94;74.04
64610;BME280;51019;46.090;6.350;2022-07-05T07:02:16;97028.59;;;22.31;71.12
64610;BME280;51019;46.090;6.350;2022-07-05T07:04:42;97032.09;;;22.97;68.08
64610;BME280;51019;46.090;6.350;2022-07-05T07:07:07;97050.44;;;23.65;62.80
64610;BME280;51019;46.090;6.350;2022-07-05T07:09:56;97047.13;;;24.14;60.68
64610;BME280;51019;46.090;6.350;2022-07-05T07:12:22;97047.06;;;24.27;60.61
64610;BME280;51019;46.090;6.350;2022-07-05T07:14:52;97043.41;;;23.70;65.55
64610;BME280;51019;46.090;6.350;2022-07-05T07:17:19;97034.00;;;23.61;62.84
64610;BME280;51019;46.090;6.350;2022-07-05T07:19:45;97052.66;;;22.97;66.48
64610;BME280;51019;46.090;6.350;2022-07-05T07:22:12;97022.34;;;23.36;64.02
64610;BME280;51019;46.090;6.350;2022-07-05T07:24:38;97046.28;;;22.91;66.71
64610;BME280;51019;46.090;6.350;2022-07-05T07:27:05;97051.53;;;24.02;65.15
64610;BME280;51019;46.090;6.350;2022-07-05T07:29:46;97045.97;;;23.52;65.41
64610;BME280;51019;46.090;6.350;2022-07-05T07:32:12;97027.75;;;23.80;63.66
64610;BME280;51019;46.090;6.350;2022-07-05T07:34:38;97036.53;;;23.30;65.14
64610;BME280;51019;46.090;6.350;2022-07-05T07:37:05;97046.28;;;23.75;63.46
64610;BME280;51019;46.090;6.350;2022-07-05T07:39:32;97054.50;;;23.03;67.54
64610;BME280;51019;46.090;6.350;2022-07-05T07:41:58;97062.75;;;22.88;68.89
64610;BME280;51019;46.090;6.350;2022-07-05T07:44:24;97055.72;;;22.74;69.88
64610;BME280;51019;46.090;6.350;2022-07-05T07:46:50;97055.09;;;23.25;68.96
64610;BME280;51019;46.090;6.350;2022-07-05T07:49:16;97060.03;;;22.75;70.58
64610;BME280;51019;46.090;6.350;2022-07-05T07:51:42;97064.97;;;22.58;70.32
64610;BME280;51019;46.090;6.350;2022-07-05T07:54:07;97061.69;;;22.56;72.13
64610;BME280;51019;46.090;6.350;2022-07-05T07:56:33;97059.34;;;23.39;68.59
64610;BME280;51019;46.090;6.350;2022-07-05T07:58:58;97063.94;;;23.83;66.63
64610;BME280;51019;46.090;6.350;2022-07-05T08:01:25;97043.94;;;23.28;69.85
64610;BME280;51019;46.090;6.350;2022-07-05T08:03:51;97060.38;;;23.44;69.85
64610;BME280;51019;46.090;6.350;2022-07-05T08:06:17;97061.22;;;23.32;70.01
64610;BME280;51019;46.090;6.350;2022-07-05T08:08:43;97059.97;;;23.47;68.86
64610;BME280;51019;46.090;6.350;2022-07-05T08:11:11;97041.00;;;23.62;67.44
64610;BME280;51019;46.090;6.350;2022-07-05T08:13:37;97053.91;;;24.23;65.40
64610;BME280;51019;46.090;6.350;2022-07-05T08:16:03;97060.94;;;24.11;66.65
64610;BME280;51019;46.090;6.350;2022-07-05T08:18:29;97050.88;;;23.62;66.03
64610;BME280;51019;46.090;6.350;2022-07-05T08:21:13;97056.56;;;24.16;65.49
64610;BME280;51019;46.090;6.350;2022-07-05T08:24:03;97055.88;;;24.34;64.69
64610;BME280;51019;46.090;6.350;2022-07-05T08:26:29;97054.66;;;24.30;63.91
64610;BME280;51019;46.090;6.350;2022-07-05T08:29:02;97038.19;;;24.83;60.84
64610;BME280;51019;46.090;6.350;2022-07-05T08:31:31;97044.53;;;25.31;58.85
64610;BME280;51019;46.090;6.350;2022-07-05T08:33:57;97045.88;;;25.22;59.58
64610;BME280;51019;46.090;6.350;2022-07-05T08:36:23;97046.03;;;25.27;58.93
64610;BME280;51019;46.090;6.350;2022-07-05T08:38:48;97052.78;;;24.87;60.42
64610;BME280;51019;46.090;6.350;2022-07-05T08:41:17;97056.28;;;26.03;58.00
64610;BME280;51019;46.090;6.350;2022-07-05T08:43:45;97048.22;;;26.03;56.26
64610;BME280;51019;46.090;6.350;2022-07-05T08:46:11;97060.47;;;25.99;55.95
64610;BME280;51019;46.090;6.350;2022-07-05T08:48:38;97051.97;;;25.29;57.60
64610;BME280;51019;46.090;6.350;2022-07-05T08:51:14;97052.91;;;24.49;61.49
64610;BME280;51019;46.090;6.350;2022-07-05T08:53:42;97058.06;;;25.00;59.68
64610;BME280;51019;46.090;6.350;2022-07-05T08:56:09;97045.84;;;25.04;58.36
64610;BME280;51019;46.090;6.350;2022-07-05T08:58:37;97052.72;;;24.44;60.23
64610;BME280;51019;46.090;6.350;2022-07-05T09:01:04;97053.53;;;25.19;57.04
64610;BME280;51019;46.090;6.350;2022-07-05T09:03:41;97041.41;;;25.16;56.05
64610;BME280;51019;46.090;6.350;2022-07-05T09:06:09;97038.94;;;25.33;55.13
64610;BME280;51019;46.090;6.350;2022-07-05T09:08:37;97046.19;;;26.17;54.88
64610;BME280;51019;46.090;6.350;2022-07-05T09:11:12;97047.38;;;26.51;51.16
64610;BME280;51019;46.090;6.350;2022-07-05T09:13:40;97034.25;;;25.47;53.27
64610;BME280;51019;46.090;6.350;2022-07-05T09:16:07;97036.47;;;25.31;52.80
64610;BME280;51019;46.090;6.350;2022-07-05T09:21:12;97033.56;;;26.48;50.61
64610;BME280;51019;46.090;6.350;2022-07-05T09:23:39;97025.44;;;27.24;49.57
64610;BME280;51019;46.090;6.350;2022-07-05T09:26:05;97005.41;;;27.20;49.19
64610;BME280;51019;46.090;6.350;2022-07-05T09:28:30;97023.44;;;27.31;48.47
64610;BME280;51019;46.090;6.350;2022-07-05T09:30:55;97013.50;;;27.20;49.88
64610;BME280;51019;46.090;6.350;2022-07-05T09:33:21;97031.53;;;27.20;48.87
64610;BME280;51019;46.090;6.350;2022-07-05T09:35:55;97026.34;;;27.65;44.79
64610;BME280;51019;46.090;6.350;2022-07-05T09:38:23;97006.16;;;25.49;48.46
64610;BME280;51019;46.090;6.350;2022-07-05T09:40:56;97029.13;;;27.46;45.93
64610;BME280;51019;46.090;6.350;2022-07-05T09:43:23;97033.56;;;27.76;43.77
64610;BME280;51019;46.090;6.350;2022-07-05T09:48:19;97020.22;;;25.81;47.86
64610;BME280;51019;46.090;6.350;2022-07-05T09:50:44;97019.97;;;26.01;46.82
64610;BME280;51019;46.090;6.350;2022-07-05T09:53:10;97016.13;;;26.38;47.06
64610;BME280;51019;46.090;6.350;2022-07-05T09:55:37;97000.94;;;26.02;45.70
64610;BME280;51019;46.090;6.350;2022-07-05T09:58:02;97008.78;;;26.46;46.81
64610;BME280;51019;46.090;6.350;2022-07-05T10:00:28;96998.22;;;26.97;46.72
64610;BME280;51019;46.090;6.350;2022-07-05T10:02:57;97011.91;;;27.99;43.96
64610;BME280;51019;46.090;6.350;2022-07-05T10:05:30;96994.63;;;28.74;42.54
64610;BME280;51019;46.090;6.350;2022-07-05T10:07:57;96996.47;;;29.07;43.56
64610;BME280;51019;46.090;6.350;2022-07-05T10:10:32;97007.13;;;28.80;43.27
64610;BME280;51019;46.090;6.350;2022-07-05T10:12:58;97009.66;;;29.03;43.76
64610;BME280;51019;46.090;6.350;2022-07-05T10:15:26;97013.22;;;28.25;42.14
64610;BME280;51019;46.090;6.350;2022-07-05T10:18:16;97004.47;;;29.18;39.92
64610;BME280;51019;46.090;6.350;2022-07-05T10:20:45;97009.09;;;28.51;42.12
64610;BME280;51019;46.090;6.350;2022-07-05T10:23:17;96987.41;;;27.09;45.52
64610;BME280;51019;46.090;6.350;2022-07-05T10:25:45;96993.44;;;27.63;43.52
64610;BME280;51019;46.090;6.350;2022-07-05T10:28:14;96989.50;;;28.89;41.61
64610;BME280;51019;46.090;6.350;2022-07-05T10:30:40;97000.75;;;29.41;40.13
64610;BME280;51019;46.090;6.350;2022-07-05T10:33:07;96996.97;;;30.35;37.85
64610;BME280;51019;46.090;6.350;2022-07-05T10:35:33;96999.06;;;29.79;36.94
64610;BME280;51019;46.090;6.350;2022-07-05T10:37:59;96988.84;;;28.82;40.02
64610;BME280;51019;46.090;6.350;2022-07-05T10:40:26;96999.69;;;26.82;43.75
64610;BME280;51019;46.090;6.350;2022-07-05T10:42:59;96993.41;;;27.74;44.20
64610;BME280;51019;46.090;6.350;2022-07-05T10:53:23;96993.03;;;29.72;36.37
64610;BME280;51019;46.090;6.350;2022-07-05T10:55:50;96985.09;;;29.21;36.14
64610;BME280;51019;46.090;6.350;2022-07-05T11:00:42;96986.44;;;29.24;36.87
64610;BME280;51019;46.090;6.350;2022-07-05T11:06:01;96968.84;;;29.38;35.51
64610;BME280;51019;46.090;6.350;2022-07-05T11:08:30;96976.81;;;27.94;38.40
64610;BME280;51019;46.090;6.350;2022-07-05T11:13:53;96980.13;;;30.27;35.46
64610;BME280;51019;46.090;6.350;2022-07-05T11:16:27;96979.69;;;30.09;34.19
64610;BME280;51019;46.090;6.350;2022-07-05T11:19:09;96982.25;;;30.25;36.11
64610;BME280;51019;46.090;6.350;2022-07-05T11:21:39;96977.06;;;30.19;34.23
64610;BME280;51019;46.090;6.350;2022-07-05T11:24:21;96982.84;;;28.46;38.24
64610;BME280;51019;46.090;6.350;2022-07-05T11:26:51;96980.94;;;30.60;34.56
64610;BME280;51019;46.090;6.350;2022-07-05T11:32:09;96971.31;;;30.74;35.40
64610;BME280;51019;46.090;6.350;2022-07-05T11:34:36;96971.97;;;31.33;34.31
64610;BME280;51019;46.090;6.350;2022-07-05T11:39:43;96977.34;;;30.81;34.28
64610;BME280;51019;46.090;6.350;2022-07-05T11:42:10;96979.88;;;30.98;32.49
64610;BME280;51019;46.090;6.350;2022-07-05T11:44:36;96975.22;;;30.93;33.73
64610;BME280;51019;46.090;6.350;2022-07-05T11:47:05;96957.06;;;31.26;33.68
64610;BME280;51019;46.090;6.350;2022-07-05T11:49:32;96965.00;;;31.48;31.73
64610;BME280;51019;46.090;6.350;2022-07-05T11:52:02;96967.25;;;31.66;31.73
64610;BME280;51019;46.090;6.350;2022-07-05T11:54:30;96972.16;;;31.74;32.07
64610;BME280;51019;46.090;6.350;2022-07-05T11:56:57;96970.13;;;31.49;33.10
64610;BME280;51019;46.090;6.350;2022-07-05T11:59:24;96968.47;;;30.91;32.11
64610;BME280;51019;46.090;6.350;2022-07-05T12:01:51;96964.34;;;31.83;29.75
64610;BME280;51019;46.090;6.350;2022-07-05T12:04:30;96956.84;;;32.40;31.28
64610;BME280;51019;46.090;6.350;2022-07-05T12:06:58;96943.72;;;31.77;32.30
64610;BME280;51019;46.090;6.350;2022-07-05T12:09:28;96948.63;;;31.80;31.24
64610;BME280;51019;46.090;6.350;2022-07-05T12:12:18;96952.47;;;30.47;32.89
64610;BME280;51019;46.090;6.350;2022-07-05T12:15:02;96964.59;;;31.76;32.40
64610;BME280;51019;46.090;6.350;2022-07-05T12:17:28;96967.69;;;32.30;31.40
64610;BME280;51019;46.090;6.350;2022-07-05T12:19:54;96947.81;;;30.43;32.22
64610;BME280;51019;46.090;6.350;2022-07-05T12:22:35;96961.91;;;30.45;34.61
64610;BME280;51019;46.090;6.350;2022-07-05T12:25:01;96957.47;;;31.08;31.03
64610;BME280;51019;46.090;6.350;2022-07-05T12:27:27;96948.72;;;31.43;32.79
64610;BME280;51019;46.090;6.350;2022-07-05T12:29:56;96951.84;;;31.77;32.30
64610;BME280;51019;46.090;6.350;2022-07-05T12:32:22;96946.81;;;32.36;32.70
64610;BME280;51019;46.090;6.350;2022-07-05T12:34:48;96950.06;;;32.58;32.74
64610;BME280;51019;46.090;6.350;2022-07-05T12:37:26;96953.59;;;32.23;31.25
64610;BME280;51019;46.090;6.350;2022-07-05T12:40:08;96950.47;;;31.64;32.38
64610;BME280;51019;46.090;6.350;2022-07-05T12:42:36;96936.03;;;31.53;33.33
64610;BME280;51019;46.090;6.350;2022-07-05T12:45:11;96952.22;;;32.16;29.60
64610;BME280;51019;46.090;6.350;2022-07-05T12:47:57;96934.50;;;31.78;28.87
64610;BME280;51019;46.090;6.350;2022-07-05T12:50:24;96926.41;;;32.99;29.08
64610;BME280;51019;46.090;6.350;2022-07-05T12:55:47;96939.75;;;32.80;27.40
64610;BME280;51019;46.090;6.350;2022-07-05T12:58:31;96912.63;;;32.20;30.05
64610;BME280;51019;46.090;6.350;2022-07-05T13:00:58;96936.44;;;31.92;27.21
64610;BME280;51019;46.090;6.350;2022-07-05T13:03:24;96936.78;;;32.31;28.53
64610;BME280;51019;46.090;6.350;2022-07-05T13:06:02;96943.00;;;32.57;27.18
64610;BME280;51019;46.090;6.350;2022-07-05T13:08:29;96937.03;;;32.65;26.21
64610;BME280;51019;46.090;6.350;2022-07-05T13:10:55;96930.25;;;32.58;27.58
64610;BME280;51019;46.090;6.350;2022-07-05T13:13:21;96921.88;;;32.49;29.52
64610;BME280;51019;46.090;6.350;2022-07-05T13:15:48;96933.81;;;32.48;29.77
64610;BME280;51019;46.090;6.350;2022-07-05T13:18:24;96938.41;;;32.78;28.12
64610;BME280;51019;46.090;6.350;2022-07-05T13:20:50;96931.34;;;32.77;26.70
64610;BME280;51019;46.090;6.350;2022-07-05T13:23:15;96928.22;;;33.19;27.08
64610;BME280;51019;46.090;6.350;2022-07-05T13:25:42;96938.72;;;33.56;26.51
64610;BME280;51019;46.090;6.350;2022-07-05T13:28:08;96927.72;;;34.20;26.96
64610;BME280;51019;46.090;6.350;2022-07-05T13:30:33;96938.34;;;33.78;25.32
64610;BME280;51019;46.090;6.350;2022-07-05T13:32:59;96943.53;;;33.69;25.60